createdAt,value
2023-01-13T00:04:05.288Z,89.67
2023-01-13T00:09:06.857Z,89.46
2023-01-13T00:14:08.508Z,88.53
2023-01-13T00:19:10.028Z,89.22
2023-01-13T00:24:11.574Z,88.47
2023-01-13T00:29:13.119Z,89.32
2023-01-13T00:34:14.677Z,90.37
2023-01-13T00:39:16.284Z,92.75
2023-01-13T00:44:17.889Z,90.80
2023-01-13T00:49:19.472Z,92.83
2023-01-13T00:54:21.031Z,93.28
2023-01-13T00:59:22.603Z,91.07
2023-01-13T01:04:24.173Z,90.17
2023-01-13T01:09:32.722Z,89.83
2023-01-13T01:14:34.671Z,89.30
2023-01-13T01:19:38.884Z,90.28
2023-01-13T01:24:40.431Z,90.10
2023-01-13T01:29:41.959Z,89.35
2023-01-13T01:34:43.485Z,88.90
2023-01-13T01:39:45.016Z,88.36
2023-01-13T01:44:52.614Z,88.43
2023-01-13T01:49:55.080Z,87.38
2023-01-13T01:54:59.622Z,87.56
2023-01-13T02:00:01.461Z,87.40
2023-01-13T02:05:03.088Z,88.29
2023-01-13T02:10:06.773Z,91.53
2023-01-13T02:15:15.507Z,100.00
2023-01-13T02:20:20.046Z,100.00
2023-01-13T02:25:24.403Z,100.00
2023-01-13T02:30:55.828Z,100.00
2023-01-13T02:36:16.910Z,100.00
2023-01-13T02:41:43.525Z,100.00
2023-01-13T02:46:51.050Z,100.00
2023-01-13T02:51:54.882Z,100.00
2023-01-13T02:56:58.263Z,100.00
2023-01-13T03:02:01.178Z,97.77
2023-01-13T03:07:09.856Z,100.00
2023-01-13T03:12:20.355Z,98.81
2023-01-13T03:17:39.946Z,100.00
2023-01-13T03:22:47.931Z,100.00
2023-01-13T03:28:11.963Z,100.00
2023-01-13T03:33:39.541Z,100.00
2023-01-13T03:38:43.428Z,100.00
2023-01-13T03:44:14.099Z,100.00
2023-01-13T03:49:19.319Z,100.00
2023-01-13T03:54:21.762Z,98.78
2023-01-13T03:59:26.019Z,97.37
2023-01-13T04:04:33.118Z,91.89
2023-01-13T04:09:50.891Z,87.81
2023-01-13T04:14:52.842Z,90.48
2023-01-13T04:19:54.184Z,89.28
2023-01-13T04:24:55.481Z,87.97
2023-01-13T04:29:56.776Z,91.83
2023-01-13T04:34:58.106Z,89.65
2023-01-13T04:39:59.424Z,88.63
2023-01-13T04:45:00.787Z,90.48
2023-01-13T04:50:02.125Z,86.86
2023-01-13T04:55:03.580Z,86.98
2023-01-13T05:00:06.073Z,87.25
2023-01-13T05:05:07.824Z,88.61
2023-01-13T05:10:09.601Z,87.89
2023-01-13T05:15:33.528Z,87.65
2023-01-13T05:20:34.887Z,90.43
2023-01-13T05:25:38.522Z,90.46
2023-01-13T05:30:44.541Z,88.49
2023-01-13T05:35:46.794Z,85.94
2023-01-13T05:41:06.800Z,84.54
2023-01-13T05:46:09.290Z,85.59
2023-01-13T05:51:11.572Z,85.69
2023-01-13T05:56:12.996Z,87.05
2023-01-13T06:01:14.368Z,86.67
2023-01-13T06:06:16.039Z,87.63
2023-01-13T06:11:17.399Z,89.22
2023-01-13T06:16:18.849Z,90.78
2023-01-13T06:21:20.198Z,90.95
2023-01-13T06:26:23.022Z,88.35
2023-01-13T06:31:25.553Z,89.89
2023-01-13T06:36:30.892Z,91.87
2023-01-13T06:41:51.463Z,92.03
2023-01-13T06:46:52.914Z,90.76
2023-01-13T06:51:54.257Z,92.65
2023-01-13T06:56:55.681Z,91.03
2023-01-13T07:01:57.158Z,92.54
2023-01-13T07:06:58.669Z,90.85
2023-01-13T07:11:59.972Z,90.80
2023-01-13T07:17:01.316Z,89.70
2023-01-13T07:22:02.696Z,90.47
2023-01-13T07:27:04.101Z,90.61
2023-01-13T07:32:06.885Z,91.51
2023-01-13T07:37:08.265Z,92.53
2023-01-13T07:42:28.102Z,91.35
2023-01-13T07:47:29.385Z,90.25
2023-01-13T07:52:30.696Z,89.42
2023-01-13T07:57:32.026Z,87.10
2023-01-13T08:02:33.430Z,86.42
2023-01-13T08:07:34.902Z,85.27
2023-01-13T08:12:56.757Z,84.22
2023-01-13T08:17:59.356Z,84.52
2023-01-13T08:23:01.067Z,79.18
2023-01-13T08:28:02.403Z,78.60
2023-01-13T08:33:07.234Z,76.48
2023-01-13T08:38:09.119Z,74.62
2023-01-13T08:43:10.649Z,73.48
2023-01-13T08:48:12.178Z,71.42
2023-01-13T08:53:13.573Z,70.92
2023-01-13T08:58:16.193Z,69.37
2023-01-13T09:03:17.720Z,66.72
2023-01-13T09:08:19.161Z,68.18
2023-01-13T09:13:21.886Z,66.94
2023-01-13T09:18:23.362Z,65.78
2023-01-13T09:23:24.673Z,67.10
2023-01-13T09:28:25.987Z,71.63
2023-01-13T09:33:46.097Z,69.13
2023-01-13T09:38:50.262Z,66.23
2023-01-13T09:43:56.065Z,61.80
2023-01-13T09:48:57.710Z,59.54
2023-01-13T09:54:11.354Z,59.73
2023-01-13T09:59:12.789Z,59.92
2023-01-13T10:04:15.276Z,57.36
2023-01-13T10:09:21.799Z,55.75
2023-01-13T10:14:23.097Z,55.47
2023-01-13T10:19:27.559Z,55.76
2023-01-13T10:24:47.539Z,55.48
2023-01-13T10:29:48.869Z,53.50
2023-01-13T10:34:51.463Z,55.02
2023-01-13T10:39:57.190Z,54.47
2023-01-13T10:44:59.653Z,54.01
2023-01-13T10:50:00.924Z,53.74
2023-01-13T10:55:02.646Z,52.74
2023-01-13T11:00:04.551Z,52.27
2023-01-13T11:05:15.228Z,51.01
2023-01-13T11:10:16.863Z,50.49
2023-01-13T11:15:23.695Z,50.08
2023-01-13T11:20:32.322Z,52.85
2023-01-13T11:25:44.451Z,53.29
2023-01-13T11:30:45.790Z,51.61
2023-01-13T11:36:01.327Z,51.17
2023-01-13T11:41:08.914Z,56.05
2023-01-13T11:46:10.909Z,57.49
2023-01-13T11:51:15.088Z,53.91
2023-01-13T11:56:24.542Z,50.63
2023-01-13T12:01:32.058Z,51.77
2023-01-13T12:06:38.557Z,50.89
2023-01-13T12:12:10.644Z,53.80
2023-01-13T12:17:20.355Z,58.36
2023-01-13T12:22:26.855Z,59.54
2023-01-13T12:27:30.959Z,57.52
2023-01-13T12:32:37.961Z,53.14
2023-01-13T12:37:48.556Z,53.49
2023-01-13T12:43:11.551Z,50.99
2023-01-13T12:48:31.358Z,51.67
2023-01-13T12:53:33.905Z,56.75
2023-01-13T12:58:35.242Z,52.36
2023-01-13T13:03:36.700Z,52.54
2023-01-13T13:09:03.172Z,52.59
2023-01-13T13:14:07.177Z,53.06
2023-01-13T13:19:17.757Z,52.30
2023-01-13T13:24:19.143Z,53.43
2023-01-13T13:29:39.350Z,55.36
2023-01-13T13:34:46.760Z,57.53
2023-01-13T13:40:06.970Z,56.92
2023-01-13T13:45:35.054Z,57.54
2023-01-13T13:50:36.383Z,57.43
2023-01-13T13:55:38.560Z,57.40
2023-01-13T14:00:39.880Z,56.89
2023-01-13T14:05:52.551Z,55.24
2023-01-13T14:10:54.000Z,57.51
2023-01-13T14:16:05.342Z,61.55
2023-01-13T14:21:12.493Z,62.58
2023-01-13T14:26:14.995Z,63.05
2023-01-13T14:31:16.628Z,64.28
2023-01-13T14:36:18.149Z,64.57
2023-01-13T14:41:21.676Z,63.85
2023-01-13T14:46:25.255Z,63.59
2023-01-13T14:51:28.064Z,65.23
2023-01-13T14:56:36.258Z,65.26
2023-01-13T15:01:39.424Z,66.60
2023-01-13T15:06:45.546Z,67.75
2023-01-13T15:11:47.395Z,70.13
2023-01-13T15:16:48.708Z,72.34
2023-01-13T15:21:50.015Z,73.13
2023-01-13T15:26:52.000Z,74.35
2023-01-13T15:31:53.311Z,77.17
2023-01-13T15:36:54.615Z,75.49
2023-01-13T15:42:15.583Z,75.59
2023-01-13T15:47:16.904Z,74.41
2023-01-13T15:52:21.410Z,74.51
2023-01-13T15:57:22.865Z,75.04
2023-01-13T16:02:25.322Z,74.79
2023-01-13T16:07:26.702Z,73.94
2023-01-13T16:12:28.041Z,73.33
2023-01-13T16:17:30.724Z,74.24
2023-01-13T16:22:32.154Z,74.66
2023-01-13T16:27:33.481Z,74.73
2023-01-13T16:32:34.807Z,74.69
2023-01-13T16:37:36.147Z,74.54
2023-01-13T16:42:37.487Z,74.67
2023-01-13T16:47:39.759Z,75.06
2023-01-13T16:52:41.121Z,76.44
2023-01-13T16:57:42.457Z,76.92
2023-01-13T17:02:43.914Z,75.25
2023-01-13T17:07:46.705Z,75.61
2023-01-13T17:12:48.041Z,76.36
2023-01-13T17:17:52.017Z,76.26
2023-01-13T17:22:58.288Z,75.20
2023-01-13T17:28:00.210Z,76.55
2023-01-13T17:33:01.595Z,76.43
2023-01-13T17:38:03.006Z,77.15
2023-01-13T17:43:04.434Z,76.97
2023-01-13T17:48:06.073Z,77.34
2023-01-13T17:53:07.389Z,77.97
2023-01-13T17:58:08.693Z,78.71
2023-01-13T18:03:10.748Z,79.63
2023-01-13T18:08:12.059Z,79.89
2023-01-13T18:13:13.377Z,80.54
2023-01-13T18:18:14.714Z,79.13
2023-01-13T18:23:36.207Z,80.12
2023-01-13T18:28:37.529Z,80.53
2023-01-13T18:33:38.888Z,79.56
2023-01-13T18:38:40.174Z,79.28
2023-01-13T18:43:41.463Z,78.49
2023-01-13T18:48:42.868Z,78.49
2023-01-13T18:53:44.194Z,77.93
2023-01-13T18:58:52.192Z,77.57
2023-01-13T19:03:54.482Z,77.27
2023-01-13T19:08:55.956Z,78.76
2023-01-13T19:13:57.311Z,78.74
2023-01-13T19:18:59.879Z,79.36
2023-01-13T19:24:01.471Z,78.94
2023-01-13T19:29:02.832Z,80.33
2023-01-13T19:34:04.170Z,80.24
2023-01-13T19:39:05.502Z,79.91
2023-01-13T19:44:26.665Z,81.07
2023-01-13T19:49:27.980Z,81.30
2023-01-13T19:54:29.305Z,82.11
2023-01-13T19:59:32.334Z,80.98
2023-01-13T20:04:37.589Z,81.27
2023-01-13T20:09:39.413Z,80.67
2023-01-13T20:14:41.186Z,81.37
2023-01-13T20:19:42.649Z,80.93
2023-01-13T20:24:44.012Z,81.77
2023-01-13T20:29:45.323Z,80.98
2023-01-13T20:34:46.614Z,81.82
2023-01-13T20:39:48.227Z,81.93
2023-01-13T20:44:49.608Z,81.55
2023-01-13T20:49:50.956Z,80.63
2023-01-13T20:54:52.290Z,80.97
2023-01-13T20:59:53.625Z,80.07
2023-01-13T21:04:54.974Z,78.60
2023-01-13T21:09:57.735Z,79.19
2023-01-13T21:15:17.451Z,79.82
2023-01-13T21:20:18.845Z,79.79
2023-01-13T21:25:20.239Z,80.56
2023-01-13T21:30:21.607Z,80.86
2023-01-13T21:35:22.923Z,80.84
2023-01-13T21:40:24.263Z,80.01
2023-01-13T21:45:44.531Z,80.18
2023-01-13T21:50:45.862Z,81.69
2023-01-13T21:55:50.245Z,80.51
2023-01-13T22:00:51.877Z,81.64
2023-01-13T22:05:55.259Z,82.09
2023-01-13T22:11:00.216Z,82.22
2023-01-13T22:16:04.663Z,81.87
2023-01-13T22:21:06.173Z,82.23
2023-01-13T22:26:08.038Z,82.32
2023-01-13T22:31:09.529Z,81.51
2023-01-13T22:36:10.945Z,81.60
2023-01-13T22:41:12.279Z,81.37
2023-01-13T22:46:13.611Z,81.32
2023-01-13T22:51:16.018Z,81.41
2023-01-13T22:56:18.882Z,81.66
2023-01-13T23:01:20.518Z,83.71
2023-01-13T23:06:23.014Z,84.44
2023-01-13T23:11:26.644Z,85.63
2023-01-13T23:16:29.338Z,85.99
2023-01-13T23:21:31.924Z,87.48
2023-01-13T23:26:33.735Z,88.56
2023-01-13T23:31:35.072Z,88.85
2023-01-13T23:36:40.853Z,88.99
2023-01-13T23:41:42.192Z,88.83
2023-01-13T23:46:43.523Z,88.56
2023-01-13T23:51:44.819Z,88.55
2023-01-13T23:56:46.127Z,88.20
